15°C Temp
'.PHP_EOL;
6°C Punto de rocío
55% Humedad
Temperatura
3 KM/H
2 MPH
2 KTS
Calm
North

Vel.del viento
Parcialmente nublado
Presión 1021.92 (hPa)- 30.18 (in)
Visibilidad 6.2 (mi) - 10 (km)

Condiciones actuales
LEVC
localidad Valencia 22(km)
Metar:
LEVC 191130Z VRB02KT 9999 FEW030 15/06 Q1022 NOSIG
Tue 19th February 12:30 pm

Aeropuerto
  Metar Aviation API Data Provided by https://www.checkwx.com/ Icons created by weather34.com